sensor_id;sensor_type;location;lat;lon;timestamp;temperature;humidity
66140;DHT22;52945;51.908;8.364;2023-04-03T00:02:36;7.50;55.60
66140;DHT22;52945;51.908;8.364;2023-04-03T00:05:37;7.40;56.60
66140;DHT22;52945;51.908;8.364;2023-04-03T00:08:38;7.30;55.20
66140;DHT22;52945;51.908;8.364;2023-04-03T00:11:39;7.30;56.80
66140;DHT22;52945;51.908;8.364;2023-04-03T00:14:40;7.30;56.40
66140;DHT22;52945;51.908;8.364;2023-04-03T00:17:41;7.20;55.20
66140;DHT22;52945;51.908;8.364;2023-04-03T00:20:41;7.10;55.60
66140;DHT22;52945;51.908;8.364;2023-04-03T00:23:42;7.10;56.50
66140;DHT22;52945;51.908;8.364;2023-04-03T00:26:42;7.20;56.60
66140;DHT22;52945;51.908;8.364;2023-04-03T00:29:43;7.20;56.30
66140;DHT22;52945;51.908;8.364;2023-04-03T00:32:44;7.10;56.10
66140;DHT22;52945;51.908;8.364;2023-04-03T00:35:44;7.10;56.30
66140;DHT22;52945;51.908;8.364;2023-04-03T00:38:45;7.00;56.30
66140;DHT22;52945;51.908;8.364;2023-04-03T00:41:46;6.90;55.60
66140;DHT22;52945;51.908;8.364;2023-04-03T00:47:47;6.80;56.70
66140;DHT22;52945;51.908;8.364;2023-04-03T00:50:48;6.80;56.00
66140;DHT22;52945;51.908;8.364;2023-04-03T00:53:59;6.80;56.80
66140;DHT22;52945;51.908;8.364;2023-04-03T00:57:19;6.70;57.50
66140;DHT22;52945;51.908;8.364;2023-04-03T01:00:21;6.80;57.30
66140;DHT22;52945;51.908;8.364;2023-04-03T01:03:23;6.70;57.40
66140;DHT22;52945;51.908;8.364;2023-04-03T01:06:27;6.70;57.70
66140;DHT22;52945;51.908;8.364;2023-04-03T01:09:28;6.70;56.80
66140;DHT22;52945;51.908;8.364;2023-04-03T01:12:32;6.60;56.80
66140;DHT22;52945;51.908;8.364;2023-04-03T01:15:33;6.60;57.20
66140;DHT22;52945;51.908;8.364;2023-04-03T01:18:38;6.50;56.90
66140;DHT22;52945;51.908;8.364;2023-04-03T01:24:47;6.50;57.90
66140;DHT22;52945;51.908;8.364;2023-04-03T01:27:48;6.50;58.10
66140;DHT22;52945;51.908;8.364;2023-04-03T01:31:02;6.40;58.00
66140;DHT22;52945;51.908;8.364;2023-04-03T01:34:06;6.40;57.80
66140;DHT22;52945;51.908;8.364;2023-04-03T01:37:06;6.30;57.80
66140;DHT22;52945;51.908;8.364;2023-04-03T01:40:07;6.40;58.10
66140;DHT22;52945;51.908;8.364;2023-04-03T01:43:08;6.30;58.90
66140;DHT22;52945;51.908;8.364;2023-04-03T01:46:09;6.30;58.20
66140;DHT22;52945;51.908;8.364;2023-04-03T01:49:10;6.30;58.10
66140;DHT22;52945;51.908;8.364;2023-04-03T01:52:11;6.20;57.50
66140;DHT22;52945;51.908;8.364;2023-04-03T01:55:11;6.20;57.20
66140;DHT22;52945;51.908;8.364;2023-04-03T01:58:12;6.10;58.10
66140;DHT22;52945;51.908;8.364;2023-04-03T02:01:12;6.10;57.30
66140;DHT22;52945;51.908;8.364;2023-04-03T02:04:13;6.10;58.20
66140;DHT22;52945;51.908;8.364;2023-04-03T02:07:13;6.10;58.00
66140;DHT22;52945;51.908;8.364;2023-04-03T02:10:14;6.00;59.10
66140;DHT22;52945;51.908;8.364;2023-04-03T02:13:15;6.00;59.20
66140;DHT22;52945;51.908;8.364;2023-04-03T02:16:16;6.00;58.40
66140;DHT22;52945;51.908;8.364;2023-04-03T02:19:17;5.90;58.60
66140;DHT22;52945;51.908;8.364;2023-04-03T02:22:17;5.80;58.10
66140;DHT22;52945;51.908;8.364;2023-04-03T02:25:18;5.80;60.50
66140;DHT22;52945;51.908;8.364;2023-04-03T02:28:19;5.80;59.10
66140;DHT22;52945;51.908;8.364;2023-04-03T02:31:19;5.80;58.40
66140;DHT22;52945;51.908;8.364;2023-04-03T02:34:21;5.70;58.50
66140;DHT22;52945;51.908;8.364;2023-04-03T02:37:21;5.70;59.20
66140;DHT22;52945;51.908;8.364;2023-04-03T02:40:22;5.70;58.30
66140;DHT22;52945;51.908;8.364;2023-04-03T02:43:22;5.70;58.70
66140;DHT22;52945;51.908;8.364;2023-04-03T02:46:23;5.70;58.70
66140;DHT22;52945;51.908;8.364;2023-04-03T02:49:24;5.60;59.40
66140;DHT22;52945;51.908;8.364;2023-04-03T02:52:24;5.70;59.60
66140;DHT22;52945;51.908;8.364;2023-04-03T02:55:25;5.60;58.40
66140;DHT22;52945;51.908;8.364;2023-04-03T02:58:26;5.60;59.50
66140;DHT22;52945;51.908;8.364;2023-04-03T03:01:26;5.50;58.90
66140;DHT22;52945;51.908;8.364;2023-04-03T03:04:31;5.50;58.90
66140;DHT22;52945;51.908;8.364;2023-04-03T03:07:32;5.50;59.30
66140;DHT22;52945;51.908;8.364;2023-04-03T03:10:33;5.50;60.20
66140;DHT22;52945;51.908;8.364;2023-04-03T03:13:34;5.50;59.50
66140;DHT22;52945;51.908;8.364;2023-04-03T03:16:34;5.50;59.30
66140;DHT22;52945;51.908;8.364;2023-04-03T03:19:35;5.50;59.40
66140;DHT22;52945;51.908;8.364;2023-04-03T03:22:36;5.40;59.10
66140;DHT22;52945;51.908;8.364;2023-04-03T03:25:40;5.40;59.40
66140;DHT22;52945;51.908;8.364;2023-04-03T03:28:41;5.30;59.60
66140;DHT22;52945;51.908;8.364;2023-04-03T03:31:41;5.30;59.70
66140;DHT22;52945;51.908;8.364;2023-04-03T03:34:42;5.30;59.70
66140;DHT22;52945;51.908;8.364;2023-04-03T03:37:42;5.20;59.00
66140;DHT22;52945;51.908;8.364;2023-04-03T03:40:43;5.10;59.40
66140;DHT22;52945;51.908;8.364;2023-04-03T03:43:44;5.10;60.50
66140;DHT22;52945;51.908;8.364;2023-04-03T03:46:44;5.00;59.00
66140;DHT22;52945;51.908;8.364;2023-04-03T03:49:45;5.00;58.90
66140;DHT22;52945;51.908;8.364;2023-04-03T03:52:46;4.90;59.10
66140;DHT22;52945;51.908;8.364;2023-04-03T03:55:46;4.90;60.30
66140;DHT22;52945;51.908;8.364;2023-04-03T03:58:47;4.70;59.50
66140;DHT22;52945;51.908;8.364;2023-04-03T04:01:49;4.80;59.50
66140;DHT22;52945;51.908;8.364;2023-04-03T04:04:50;4.70;59.30
66140;DHT22;52945;51.908;8.364;2023-04-03T04:07:51;4.70;59.40
66140;DHT22;52945;51.908;8.364;2023-04-03T04:10:51;4.60;59.00
66140;DHT22;52945;51.908;8.364;2023-04-03T04:13:52;4.60;59.60
66140;DHT22;52945;51.908;8.364;2023-04-03T04:16:52;4.60;59.20
66140;DHT22;52945;51.908;8.364;2023-04-03T04:19:53;4.60;60.40
66140;DHT22;52945;51.908;8.364;2023-04-03T04:22:53;4.50;59.90
66140;DHT22;52945;51.908;8.364;2023-04-03T04:25:54;4.50;60.10
66140;DHT22;52945;51.908;8.364;2023-04-03T04:28:55;4.50;60.10
66140;DHT22;52945;51.908;8.364;2023-04-03T04:31:55;4.40;61.40
66140;DHT22;52945;51.908;8.364;2023-04-03T04:34:56;4.40;60.80
66140;DHT22;52945;51.908;8.364;2023-04-03T04:37:56;4.40;60.50
66140;DHT22;52945;51.908;8.364;2023-04-03T04:40:57;4.30;60.80
66140;DHT22;52945;51.908;8.364;2023-04-03T04:43:58;4.30;61.40
66140;DHT22;52945;51.908;8.364;2023-04-03T04:46:58;4.30;60.80
66140;DHT22;52945;51.908;8.364;2023-04-03T04:49:59;4.30;60.70
66140;DHT22;52945;51.908;8.364;2023-04-03T04:52:59;4.30;60.70
66140;DHT22;52945;51.908;8.364;2023-04-03T04:56:00;4.20;61.50
66140;DHT22;52945;51.908;8.364;2023-04-03T04:59:01;4.20;61.00
66140;DHT22;52945;51.908;8.364;2023-04-03T05:02:01;4.20;61.50
66140;DHT22;52945;51.908;8.364;2023-04-03T05:05:02;4.20;61.20
66140;DHT22;52945;51.908;8.364;2023-04-03T05:08:04;4.10;61.40
66140;DHT22;52945;51.908;8.364;2023-04-03T05:11:05;4.10;61.20
66140;DHT22;52945;51.908;8.364;2023-04-03T05:14:05;4.10;61.10
66140;DHT22;52945;51.908;8.364;2023-04-03T05:17:06;4.00;61.50
66140;DHT22;52945;51.908;8.364;2023-04-03T05:20:07;4.00;61.30
66140;DHT22;52945;51.908;8.364;2023-04-03T05:23:09;4.10;61.80
66140;DHT22;52945;51.908;8.364;2023-04-03T05:26:10;4.00;61.50
66140;DHT22;52945;51.908;8.364;2023-04-03T05:29:11;4.10;61.80
66140;DHT22;52945;51.908;8.364;2023-04-03T05:32:12;4.00;61.50
66140;DHT22;52945;51.908;8.364;2023-04-03T05:35:12;3.90;61.40
66140;DHT22;52945;51.908;8.364;2023-04-03T05:38:13;3.90;61.60
66140;DHT22;52945;51.908;8.364;2023-04-03T05:41:15;3.90;61.70
66140;DHT22;52945;51.908;8.364;2023-04-03T05:44:15;4.00;62.00
66140;DHT22;52945;51.908;8.364;2023-04-03T05:47:17;4.00;61.80
66140;DHT22;52945;51.908;8.364;2023-04-03T05:50:18;3.90;62.00
66140;DHT22;52945;51.908;8.364;2023-04-03T05:53:23;3.90;61.90
66140;DHT22;52945;51.908;8.364;2023-04-03T05:56:25;4.00;61.80
66140;DHT22;52945;51.908;8.364;2023-04-03T05:59:25;3.90;61.70
66140;DHT22;52945;51.908;8.364;2023-04-03T06:02:26;4.00;61.60
66140;DHT22;52945;51.908;8.364;2023-04-03T06:05:27;4.00;61.80
66140;DHT22;52945;51.908;8.364;2023-04-03T06:08:28;4.00;62.20
66140;DHT22;52945;51.908;8.364;2023-04-03T06:11:28;4.10;61.80
66140;DHT22;52945;51.908;8.364;2023-04-03T06:14:29;4.10;61.90
66140;DHT22;52945;51.908;8.364;2023-04-03T06:17:30;4.10;61.70
66140;DHT22;52945;51.908;8.364;2023-04-03T06:20:30;4.20;61.70
66140;DHT22;52945;51.908;8.364;2023-04-03T06:23:31;4.20;61.50
66140;DHT22;52945;51.908;8.364;2023-04-03T06:26:33;4.20;61.40
66140;DHT22;52945;51.908;8.364;2023-04-03T06:29:34;4.20;61.50
66140;DHT22;52945;51.908;8.364;2023-04-03T06:32:34;4.20;61.40
66140;DHT22;52945;51.908;8.364;2023-04-03T06:35:35;4.20;61.20
66140;DHT22;52945;51.908;8.364;2023-04-03T06:38:37;4.20;60.70
66140;DHT22;52945;51.908;8.364;2023-04-03T06:41:37;4.30;60.70
66140;DHT22;52945;51.908;8.364;2023-04-03T06:44:38;4.40;60.70
66140;DHT22;52945;51.908;8.364;2023-04-03T06:47:38;4.40;60.40
66140;DHT22;52945;51.908;8.364;2023-04-03T06:50:39;4.50;60.00
66140;DHT22;52945;51.908;8.364;2023-04-03T06:53:40;4.60;59.70
66140;DHT22;52945;51.908;8.364;2023-04-03T06:56:41;4.70;59.30
66140;DHT22;52945;51.908;8.364;2023-04-03T06:59:42;4.70;58.90
66140;DHT22;52945;51.908;8.364;2023-04-03T07:02:42;4.90;58.80
66140;DHT22;52945;51.908;8.364;2023-04-03T07:05:43;5.00;58.30
66140;DHT22;52945;51.908;8.364;2023-04-03T07:08:45;5.10;57.90
66140;DHT22;52945;51.908;8.364;2023-04-03T07:11:46;5.30;57.20
66140;DHT22;52945;51.908;8.364;2023-04-03T07:14:47;5.40;57.00
66140;DHT22;52945;51.908;8.364;2023-04-03T07:17:47;5.50;56.00
66140;DHT22;52945;51.908;8.364;2023-04-03T07:20:49;5.50;54.90
66140;DHT22;52945;51.908;8.364;2023-04-03T07:23:50;5.60;54.90
66140;DHT22;52945;51.908;8.364;2023-04-03T07:26:52;5.50;53.50
66140;DHT22;52945;51.908;8.364;2023-04-03T07:29:52;5.60;54.00
66140;DHT22;52945;51.908;8.364;2023-04-03T07:32:53;5.50;53.80
66140;DHT22;52945;51.908;8.364;2023-04-03T07:35:54;5.50;53.60
66140;DHT22;52945;51.908;8.364;2023-04-03T07:38:56;5.50;53.10
66140;DHT22;52945;51.908;8.364;2023-04-03T07:41:56;5.50;52.60
66140;DHT22;52945;51.908;8.364;2023-04-03T07:44:57;5.50;52.10
66140;DHT22;52945;51.908;8.364;2023-04-03T07:47:57;5.50;52.40
66140;DHT22;52945;51.908;8.364;2023-04-03T07:51:02;5.60;52.50
66140;DHT22;52945;51.908;8.364;2023-04-03T07:54:04;5.60;51.80
66140;DHT22;52945;51.908;8.364;2023-04-03T07:57:04;5.60;51.50
66140;DHT22;52945;51.908;8.364;2023-04-03T08:00:06;5.60;52.00
66140;DHT22;52945;51.908;8.364;2023-04-03T08:03:08;5.70;50.80
66140;DHT22;52945;51.908;8.364;2023-04-03T08:06:09;5.70;50.40
66140;DHT22;52945;51.908;8.364;2023-04-03T08:09:10;5.70;49.60
66140;DHT22;52945;51.908;8.364;2023-04-03T08:12:11;5.80;49.40
66140;DHT22;52945;51.908;8.364;2023-04-03T08:15:11;5.80;48.90
66140;DHT22;52945;51.908;8.364;2023-04-03T08:18:13;5.90;48.20
66140;DHT22;52945;51.908;8.364;2023-04-03T08:21:14;6.00;47.70
66140;DHT22;52945;51.908;8.364;2023-04-03T08:24:14;6.00;47.40
66140;DHT22;52945;51.908;8.364;2023-04-03T08:27:15;6.10;45.80
66140;DHT22;52945;51.908;8.364;2023-04-03T08:30:16;6.20;45.40
66140;DHT22;52945;51.908;8.364;2023-04-03T08:33:17;6.20;44.80
66140;DHT22;52945;51.908;8.364;2023-04-03T08:36:23;6.20;43.00
66140;DHT22;52945;51.908;8.364;2023-04-03T08:39:24;6.40;43.40
66140;DHT22;52945;51.908;8.364;2023-04-03T08:42:47;6.50;44.10
66140;DHT22;52945;51.908;8.364;2023-04-03T08:45:55;6.70;43.40
66140;DHT22;52945;51.908;8.364;2023-04-03T08:48:57;7.10;42.20
66140;DHT22;52945;51.908;8.364;2023-04-03T08:52:02;7.30;42.20
66140;DHT22;52945;51.908;8.364;2023-04-03T08:55:23;7.60;42.90
66140;DHT22;52945;51.908;8.364;2023-04-03T08:58:36;7.80;42.90
66140;DHT22;52945;51.908;8.364;2023-04-03T09:01:42;8.00;40.90
66140;DHT22;52945;51.908;8.364;2023-04-03T09:04:43;8.20;40.00
66140;DHT22;52945;51.908;8.364;2023-04-03T09:08:32;8.40;41.00
66140;DHT22;52945;51.908;8.364;2023-04-03T09:21:31;9.40;41.10
66140;DHT22;52945;51.908;8.364;2023-04-03T09:24:35;9.70;39.80
66140;DHT22;52945;51.908;8.364;2023-04-03T09:27:37;9.70;38.00
66140;DHT22;52945;51.908;8.364;2023-04-03T09:30:38;10.10;40.40
66140;DHT22;52945;51.908;8.364;2023-04-03T09:33:39;10.50;36.70
66140;DHT22;52945;51.908;8.364;2023-04-03T09:39:52;11.00;34.00
66140;DHT22;52945;51.908;8.364;2023-04-03T09:42:56;11.30;35.90
66140;DHT22;52945;51.908;8.364;2023-04-03T09:46:28;11.50;34.60
66140;DHT22;52945;51.908;8.364;2023-04-03T09:49:28;11.60;33.00
66140;DHT22;52945;51.908;8.364;2023-04-03T09:52:29;11.70;33.60
66140;DHT22;52945;51.908;8.364;2023-04-03T09:55:32;11.90;35.30
66140;DHT22;52945;51.908;8.364;2023-04-03T09:58:39;12.10;34.00
66140;DHT22;52945;51.908;8.364;2023-04-03T10:01:57;12.00;33.90
66140;DHT22;52945;51.908;8.364;2023-04-03T10:04:58;12.00;34.00
66140;DHT22;52945;51.908;8.364;2023-04-03T10:11:17;12.00;33.60
66140;DHT22;52945;51.908;8.364;2023-04-03T10:14:19;12.10;33.80
66140;DHT22;52945;51.908;8.364;2023-04-03T10:17:26;12.20;33.40
66140;DHT22;52945;51.908;8.364;2023-04-03T10:20:39;12.20;34.30
66140;DHT22;52945;51.908;8.364;2023-04-03T10:23:45;12.40;34.10
66140;DHT22;52945;51.908;8.364;2023-04-03T10:40:47;12.70;32.20
66140;DHT22;52945;51.908;8.364;2023-04-03T10:44:04;12.80;32.40
66140;DHT22;52945;51.908;8.364;2023-04-03T10:51:04;12.60;31.90
66140;DHT22;52945;51.908;8.364;2023-04-03T10:54:26;12.40;32.50
66140;DHT22;52945;51.908;8.364;2023-04-03T10:57:30;12.40;33.10
66140;DHT22;52945;51.908;8.364;2023-04-03T11:00:42;12.60;33.50
66140;DHT22;52945;51.908;8.364;2023-04-03T11:03:48;12.70;32.90
66140;DHT22;52945;51.908;8.364;2023-04-03T11:07:17;12.90;33.20
66140;DHT22;52945;51.908;8.364;2023-04-03T11:10:51;13.20;33.50
66140;DHT22;52945;51.908;8.364;2023-04-03T11:14:02;13.30;31.70
66140;DHT22;52945;51.908;8.364;2023-04-03T11:20:28;13.10;31.00
66140;DHT22;52945;51.908;8.364;2023-04-03T11:23:39;13.00;31.10
66140;DHT22;52945;51.908;8.364;2023-04-03T11:26:42;12.70;31.70
66140;DHT22;52945;51.908;8.364;2023-04-03T11:29:44;12.60;31.90
66140;DHT22;52945;51.908;8.364;2023-04-03T11:36:18;12.40;33.80
66140;DHT22;52945;51.908;8.364;2023-04-03T11:39:24;12.50;33.10
66140;DHT22;52945;51.908;8.364;2023-04-03T11:42:37;12.70;32.30
66140;DHT22;52945;51.908;8.364;2023-04-03T11:45:50;13.00;32.30
66140;DHT22;52945;51.908;8.364;2023-04-03T11:48:53;13.20;32.00
66140;DHT22;52945;51.908;8.364;2023-04-03T11:51:55;13.50;31.30
66140;DHT22;52945;51.908;8.364;2023-04-03T11:54:57;13.60;31.90
66140;DHT22;52945;51.908;8.364;2023-04-03T12:01:00;13.60;31.10
66140;DHT22;52945;51.908;8.364;2023-04-03T12:04:09;13.40;31.10
66140;DHT22;52945;51.908;8.364;2023-04-03T12:07:18;13.20;31.70
66140;DHT22;52945;51.908;8.364;2023-04-03T12:10:19;13.10;32.00
66140;DHT22;52945;51.908;8.364;2023-04-03T12:13:19;13.00;31.80
66140;DHT22;52945;51.908;8.364;2023-04-03T12:19:34;12.70;31.90
66140;DHT22;52945;51.908;8.364;2023-04-03T12:22:35;12.70;32.70
66140;DHT22;52945;51.908;8.364;2023-04-03T12:29:24;12.90;32.80
66140;DHT22;52945;51.908;8.364;2023-04-03T12:32:41;12.80;32.80
66140;DHT22;52945;51.908;8.364;2023-04-03T12:49:37;12.80;32.90
66140;DHT22;52945;51.908;8.364;2023-04-03T12:52:42;12.70;32.80
66140;DHT22;52945;51.908;8.364;2023-04-03T12:55:44;12.70;32.90
66140;DHT22;52945;51.908;8.364;2023-04-03T12:58:45;12.60;32.50
66140;DHT22;52945;51.908;8.364;2023-04-03T13:02:00;12.40;32.20
66140;DHT22;52945;51.908;8.364;2023-04-03T13:05:08;12.30;32.40
66140;DHT22;52945;51.908;8.364;2023-04-03T13:08:10;12.20;32.60
66140;DHT22;52945;51.908;8.364;2023-04-03T13:11:12;12.30;32.70
66140;DHT22;52945;51.908;8.364;2023-04-03T13:14:21;12.40;33.40
66140;DHT22;52945;51.908;8.364;2023-04-03T13:17:23;12.60;33.10
66140;DHT22;52945;51.908;8.364;2023-04-03T13:20:29;12.80;32.70
66140;DHT22;52945;51.908;8.364;2023-04-03T13:23:32;13.00;32.40
66140;DHT22;52945;51.908;8.364;2023-04-03T13:26:35;13.20;31.90
66140;DHT22;52945;51.908;8.364;2023-04-03T13:29:36;13.40;31.00
66140;DHT22;52945;51.908;8.364;2023-04-03T13:32:37;13.60;31.00
66140;DHT22;52945;51.908;8.364;2023-04-03T13:35:40;13.70;31.00
66140;DHT22;52945;51.908;8.364;2023-04-03T13:38:41;13.90;31.40
66140;DHT22;52945;51.908;8.364;2023-04-03T13:41:45;14.00;30.50
66140;DHT22;52945;51.908;8.364;2023-04-03T13:44:46;14.00;31.20
66140;DHT22;52945;51.908;8.364;2023-04-03T13:47:48;14.20;30.30
66140;DHT22;52945;51.908;8.364;2023-04-03T13:51:01;13.90;30.60
66140;DHT22;52945;51.908;8.364;2023-04-03T13:57:30;14.00;30.40
66140;DHT22;52945;51.908;8.364;2023-04-03T14:00:39;14.00;29.50
66140;DHT22;52945;51.908;8.364;2023-04-03T14:03:54;14.00;30.40
66140;DHT22;52945;51.908;8.364;2023-04-03T14:06:55;14.10;31.60
66140;DHT22;52945;51.908;8.364;2023-04-03T14:09:56;14.20;31.90
66140;DHT22;52945;51.908;8.364;2023-04-03T14:12:57;14.30;30.80
66140;DHT22;52945;51.908;8.364;2023-04-03T14:15:57;14.40;30.70
66140;DHT22;52945;51.908;8.364;2023-04-03T14:18:58;14.20;30.00
66140;DHT22;52945;51.908;8.364;2023-04-03T14:22:00;14.00;30.00
66140;DHT22;52945;51.908;8.364;2023-04-03T14:25:02;14.00;30.90
66140;DHT22;52945;51.908;8.364;2023-04-03T14:28:18;13.90;31.10
66140;DHT22;52945;51.908;8.364;2023-04-03T14:31:20;14.00;31.40
66140;DHT22;52945;51.908;8.364;2023-04-03T14:34:21;13.90;30.90
66140;DHT22;52945;51.908;8.364;2023-04-03T14:37:24;13.60;30.00
66140;DHT22;52945;51.908;8.364;2023-04-03T14:40:27;13.20;30.50
66140;DHT22;52945;51.908;8.364;2023-04-03T14:43:27;13.40;31.90
66140;DHT22;52945;51.908;8.364;2023-04-03T14:46:32;13.50;31.60
66140;DHT22;52945;51.908;8.364;2023-04-03T14:49:33;13.50;30.80
66140;DHT22;52945;51.908;8.364;2023-04-03T14:52:35;13.60;31.60
66140;DHT22;52945;51.908;8.364;2023-04-03T14:55:36;13.50;31.30
66140;DHT22;52945;51.908;8.364;2023-04-03T14:58:36;13.50;31.50
66140;DHT22;52945;51.908;8.364;2023-04-03T15:01:37;13.50;31.30
66140;DHT22;52945;51.908;8.364;2023-04-03T15:04:37;13.60;30.70
66140;DHT22;52945;51.908;8.364;2023-04-03T15:07:41;13.60;31.10
66140;DHT22;52945;51.908;8.364;2023-04-03T15:10:42;13.60;30.90
66140;DHT22;52945;51.908;8.364;2023-04-03T15:13:43;13.70;31.10
66140;DHT22;52945;51.908;8.364;2023-04-03T15:16:44;13.70;30.60
66140;DHT22;52945;51.908;8.364;2023-04-03T15:19:45;13.70;30.60
66140;DHT22;52945;51.908;8.364;2023-04-03T15:22:46;13.70;30.20
66140;DHT22;52945;51.908;8.364;2023-04-03T15:25:48;13.80;30.30
66140;DHT22;52945;51.908;8.364;2023-04-03T15:28:49;13.80;30.30
66140;DHT22;52945;51.908;8.364;2023-04-03T15:31:50;13.80;29.10
66140;DHT22;52945;51.908;8.364;2023-04-03T15:34:54;13.80;30.10
66140;DHT22;52945;51.908;8.364;2023-04-03T15:37:55;14.00;30.80
66140;DHT22;52945;51.908;8.364;2023-04-03T15:40:56;13.90;30.00
66140;DHT22;52945;51.908;8.364;2023-04-03T15:43:56;13.80;29.70
66140;DHT22;52945;51.908;8.364;2023-04-03T15:46:58;13.80;30.00
66140;DHT22;52945;51.908;8.364;2023-04-03T15:49:59;13.90;30.00
66140;DHT22;52945;51.908;8.364;2023-04-03T15:53:00;13.90;30.30
66140;DHT22;52945;51.908;8.364;2023-04-03T15:56:01;13.90;30.80
66140;DHT22;52945;51.908;8.364;2023-04-03T15:59:02;13.90;30.40
66140;DHT22;52945;51.908;8.364;2023-04-03T16:02:04;13.90;29.90
66140;DHT22;52945;51.908;8.364;2023-04-03T16:05:06;13.90;30.40
66140;DHT22;52945;51.908;8.364;2023-04-03T16:08:07;13.80;30.40
66140;DHT22;52945;51.908;8.364;2023-04-03T16:11:08;13.60;30.40
66140;DHT22;52945;51.908;8.364;2023-04-03T16:14:09;13.50;30.40
66140;DHT22;52945;51.908;8.364;2023-04-03T16:17:10;13.30;30.70
66140;DHT22;52945;51.908;8.364;2023-04-03T16:20:12;13.10;30.90
66140;DHT22;52945;51.908;8.364;2023-04-03T16:23:13;13.10;31.30
66140;DHT22;52945;51.908;8.364;2023-04-03T16:26:14;13.10;31.50
66140;DHT22;52945;51.908;8.364;2023-04-03T16:29:15;13.10;30.50
66140;DHT22;52945;51.908;8.364;2023-04-03T16:32:15;13.20;31.30
66140;DHT22;52945;51.908;8.364;2023-04-03T16:35:16;13.40;31.30
66140;DHT22;52945;51.908;8.364;2023-04-03T16:38:16;13.40;31.10
66140;DHT22;52945;51.908;8.364;2023-04-03T16:41:19;13.40;30.80
66140;DHT22;52945;51.908;8.364;2023-04-03T16:44:19;13.60;30.40
66140;DHT22;52945;51.908;8.364;2023-04-03T16:47:20;13.70;30.90
66140;DHT22;52945;51.908;8.364;2023-04-03T16:50:21;13.80;30.80
66140;DHT22;52945;51.908;8.364;2023-04-03T16:53:22;13.70;30.10
66140;DHT22;52945;51.908;8.364;2023-04-03T16:56:24;13.70;30.40
66140;DHT22;52945;51.908;8.364;2023-04-03T16:59:25;13.70;29.70
66140;DHT22;52945;51.908;8.364;2023-04-03T17:02:26;13.40;30.20
66140;DHT22;52945;51.908;8.364;2023-04-03T17:05:26;13.30;30.90
66140;DHT22;52945;51.908;8.364;2023-04-03T17:08:27;13.20;30.80
66140;DHT22;52945;51.908;8.364;2023-04-03T17:11:28;13.00;31.00
66140;DHT22;52945;51.908;8.364;2023-04-03T17:14:30;12.80;31.50
66140;DHT22;52945;51.908;8.364;2023-04-03T17:17:30;12.70;31.90
66140;DHT22;52945;51.908;8.364;2023-04-03T17:20:31;12.60;31.80
66140;DHT22;52945;51.908;8.364;2023-04-03T17:23:35;12.40;32.20
66140;DHT22;52945;51.908;8.364;2023-04-03T17:26:36;12.30;32.80
66140;DHT22;52945;51.908;8.364;2023-04-03T17:29:37;12.20;33.00
66140;DHT22;52945;51.908;8.364;2023-04-03T17:32:37;12.10;33.40
66140;DHT22;52945;51.908;8.364;2023-04-03T17:35:38;12.10;33.30
66140;DHT22;52945;51.908;8.364;2023-04-03T17:38:38;11.90;33.70
66140;DHT22;52945;51.908;8.364;2023-04-03T17:41:39;11.80;34.10
66140;DHT22;52945;51.908;8.364;2023-04-03T17:44:40;11.70;34.00
66140;DHT22;52945;51.908;8.364;2023-04-03T17:47:41;11.60;33.70
66140;DHT22;52945;51.908;8.364;2023-04-03T17:50:41;11.50;33.60
66140;DHT22;52945;51.908;8.364;2023-04-03T17:53:42;11.40;34.70
66140;DHT22;52945;51.908;8.364;2023-04-03T17:56:43;11.30;35.60
66140;DHT22;52945;51.908;8.364;2023-04-03T17:59:47;11.20;35.00
66140;DHT22;52945;51.908;8.364;2023-04-03T18:02:51;11.20;35.40
66140;DHT22;52945;51.908;8.364;2023-04-03T18:05:52;11.20;36.20
66140;DHT22;52945;51.908;8.364;2023-04-03T18:09:00;11.20;36.40
66140;DHT22;52945;51.908;8.364;2023-04-03T18:12:04;11.20;36.10
66140;DHT22;52945;51.908;8.364;2023-04-03T18:15:06;11.10;36.10
66140;DHT22;52945;51.908;8.364;2023-04-03T18:18:07;11.00;36.10
66140;DHT22;52945;51.908;8.364;2023-04-03T18:21:10;10.90;36.70
66140;DHT22;52945;51.908;8.364;2023-04-03T18:24:13;10.90;37.20
66140;DHT22;52945;51.908;8.364;2023-04-03T18:27:17;10.80;37.40
66140;DHT22;52945;51.908;8.364;2023-04-03T18:30:18;10.80;37.30
66140;DHT22;52945;51.908;8.364;2023-04-03T18:33:19;10.70;38.30
66140;DHT22;52945;51.908;8.364;2023-04-03T18:36:19;10.70;38.30
66140;DHT22;52945;51.908;8.364;2023-04-03T18:39:20;10.70;38.00
66140;DHT22;52945;51.908;8.364;2023-04-03T18:42:23;10.70;37.90
66140;DHT22;52945;51.908;8.364;2023-04-03T18:45:24;10.60;37.90
66140;DHT22;52945;51.908;8.364;2023-04-03T18:48:25;10.60;38.40
66140;DHT22;52945;51.908;8.364;2023-04-03T18:51:26;10.50;37.90
66140;DHT22;52945;51.908;8.364;2023-04-03T18:54:26;10.40;39.00
66140;DHT22;52945;51.908;8.364;2023-04-03T18:57:27;10.30;38.70
66140;DHT22;52945;51.908;8.364;2023-04-03T19:00:28;10.20;38.00
66140;DHT22;52945;51.908;8.364;2023-04-03T19:03:29;10.20;38.80
66140;DHT22;52945;51.908;8.364;2023-04-03T19:06:33;10.20;38.50
66140;DHT22;52945;51.908;8.364;2023-04-03T19:09:34;10.10;38.80
66140;DHT22;52945;51.908;8.364;2023-04-03T19:12:35;10.00;39.60
66140;DHT22;52945;51.908;8.364;2023-04-03T19:15:35;10.00;39.50
66140;DHT22;52945;51.908;8.364;2023-04-03T19:18:36;9.90;39.40
66140;DHT22;52945;51.908;8.364;2023-04-03T19:21:36;9.90;39.50
66140;DHT22;52945;51.908;8.364;2023-04-03T19:24:40;9.80;39.30
66140;DHT22;52945;51.908;8.364;2023-04-03T19:27:41;9.80;39.60
66140;DHT22;52945;51.908;8.364;2023-04-03T19:30:41;9.70;39.60
66140;DHT22;52945;51.908;8.364;2023-04-03T19:33:43;9.70;39.90
66140;DHT22;52945;51.908;8.364;2023-04-03T19:36:43;9.60;40.00
66140;DHT22;52945;51.908;8.364;2023-04-03T19:39:45;9.60;40.10
66140;DHT22;52945;51.908;8.364;2023-04-03T19:42:45;9.60;40.60
66140;DHT22;52945;51.908;8.364;2023-04-03T19:45:46;9.50;40.10
66140;DHT22;52945;51.908;8.364;2023-04-03T19:48:47;9.50;41.10
66140;DHT22;52945;51.908;8.364;2023-04-03T19:51:47;9.50;40.90
66140;DHT22;52945;51.908;8.364;2023-04-03T19:54:48;9.50;40.60
66140;DHT22;52945;51.908;8.364;2023-04-03T19:57:48;9.40;41.10
66140;DHT22;52945;51.908;8.364;2023-04-03T20:00:49;9.40;41.30
66140;DHT22;52945;51.908;8.364;2023-04-03T20:03:51;9.30;41.60
66140;DHT22;52945;51.908;8.364;2023-04-03T20:06:51;9.30;41.20
66140;DHT22;52945;51.908;8.364;2023-04-03T20:09:53;9.20;41.40
66140;DHT22;52945;51.908;8.364;2023-04-03T20:12:53;9.20;41.80
66140;DHT22;52945;51.908;8.364;2023-04-03T20:15:54;9.10;41.70
66140;DHT22;52945;51.908;8.364;2023-04-03T20:18:55;9.10;41.70
66140;DHT22;52945;51.908;8.364;2023-04-03T20:21:59;9.00;41.60
66140;DHT22;52945;51.908;8.364;2023-04-03T20:25:02;8.90;41.90
66140;DHT22;52945;51.908;8.364;2023-04-03T20:28:03;8.90;42.10
66140;DHT22;52945;51.908;8.364;2023-04-03T20:31:04;8.90;42.40
66140;DHT22;52945;51.908;8.364;2023-04-03T20:34:05;8.80;42.50
66140;DHT22;52945;51.908;8.364;2023-04-03T20:37:06;8.80;42.10
66140;DHT22;52945;51.908;8.364;2023-04-03T20:40:08;8.70;42.20